Time;durP1;ratioP1;P1;durP2;ratioP2;P2;SDS_P1;SDS_P2;PMS_P1;PMS_P2;Temp;Humidity;BMP_temperature;BMP_pressure;BME280_temperature;BME280_humidity;BME280_pressure;Samples;Min_cycle;Max_cycle;Signal;HPM_P1;HPM_P2
2021/03/18 00:01:35;;;;;;;3.33;2.95;;;1.50;99.80;;;;;;6149002;23;20275;-83
2021/03/18 00:04:05;;;;;;;8.35;3.80;;;1.40;99.80;;;;;;6159934;23;20214;-83
2021/03/18 00:06:33;;;;;;;6.15;3.72;;;1.30;99.80;;;;;;6148746;23;20207;-81
2021/03/18 00:09:05;;;;;;;3.50;3.20;;;1.30;99.80;;;;;;6148723;23;20273;-81
2021/03/18 00:11:33;;;;;;;6.22;3.75;;;1.20;99.80;;;;;;6190770;23;20276;-82
2021/03/18 00:13:59;;;;;;;13.45;3.90;;;1.20;99.80;;;;;;6191301;23;20213;-83
2021/03/18 00:16:27;;;;;;;9.13;3.45;;;1.10;99.80;;;;;;6188114;23;20202;-82
2021/03/18 00:18:54;;;;;;;7.93;3.35;;;1.00;99.80;;;;;;6206950;23;20744;-82
2021/03/18 00:21:23;;;;;;;7.90;4.57;;;0.90;99.80;;;;;;6207813;23;20203;-82
2021/03/18 00:23:51;;;;;;;5.80;4.57;;;0.80;99.80;;;;;;6206200;23;20217;-84
2021/03/18 00:26:22;;;;;;;5.65;2.75;;;0.70;99.80;;;;;;6194516;23;20229;-83
2021/03/18 00:28:49;;;;;;;6.82;3.92;;;0.60;99.80;;;;;;6185968;23;20201;-83
2021/03/18 00:31:19;;;;;;;5.40;2.90;;;0.70;99.80;;;;;;6190415;23;20196;-84
2021/03/18 00:33:46;;;;;;;4.53;3.10;;;0.70;99.80;;;;;;6207730;23;20736;-83
2021/03/18 00:36:13;;;;;;;9.35;3.80;;;0.80;99.80;;;;;;6188227;23;20228;-82
2021/03/18 00:38:40;;;;;;;5.32;3.22;;;0.80;99.80;;;;;;6183952;23;20293;-83
2021/03/18 00:41:10;;;;;;;8.27;3.40;;;0.80;99.80;;;;;;6201795;23;20288;-82
2021/03/18 00:43:39;;;;;;;6.32;2.88;;;0.80;99.80;;;;;;6200510;23;20210;-82
2021/03/18 00:46:07;;;;;;;7.20;3.28;;;0.80;99.80;;;;;;6193849;23;20201;-84
2021/03/18 00:48:35;;;;;;;7.72;3.60;;;0.80;99.80;;;;;;6205728;23;20281;-83
2021/03/18 00:51:05;;;;;;;7.05;2.70;;;0.70;99.80;;;;;;6207782;23;20197;-82
2021/03/18 00:53:34;;;;;;;6.45;3.35;;;0.70;99.80;;;;;;6208556;23;20523;-82
2021/03/18 00:56:02;;;;;;;5.38;3.00;;;0.70;99.80;;;;;;6207751;23;20207;-82
2021/03/18 00:58:29;;;;;;;7.78;3.08;;;0.70;99.80;;;;;;6179119;23;20282;-83
2021/03/18 01:01:00;;;;;;;3.80;3.22;;;0.80;99.80;;;;;;6176487;23;20202;-82
2021/03/18 01:03:28;;;;;;;6.75;4.00;;;0.80;99.80;;;;;;6206583;23;20213;-83
2021/03/18 01:05:59;;;;;;;5.10;4.22;;;0.80;99.80;;;;;;6190099;23;20602;-83
2021/03/18 01:08:28;;;;;;;6.25;3.80;;;0.80;99.80;;;;;;6189939;23;20658;-81
2021/03/18 01:10:57;;;;;;;3.72;3.35;;;0.70;99.80;;;;;;6198491;23;20290;-82
2021/03/18 01:13:24;;;;;;;5.38;3.60;;;0.70;99.80;;;;;;6175662;23;20699;-81
2021/03/18 01:15:54;;;;;;;6.35;3.90;;;0.70;99.80;;;;;;6199703;23;20230;-82
2021/03/18 01:18:24;;;;;;;6.85;3.88;;;0.70;99.80;;;;;;6183953;23;20201;-83
2021/03/18 01:20:52;;;;;;;5.10;3.55;;;0.70;99.80;;;;;;6168660;23;20256;-82
2021/03/18 01:23:19;;;;;;;3.85;3.50;;;0.60;99.80;;;;;;6160559;23;20206;-82
2021/03/18 01:25:46;;;;;;;5.00;3.30;;;0.60;99.80;;;;;;6167386;23;20225;-82
2021/03/18 01:28:13;;;;;;;11.63;4.13;;;0.60;99.80;;;;;;6161434;23;20205;-83
2021/03/18 01:30:51;;;;;;;3.70;3.17;;;0.60;99.80;;;;;;6167306;23;20200;-82
2021/03/18 01:33:18;;;;;;;4.75;3.00;;;0.50;99.80;;;;;;6173949;23;20212;-80
2021/03/18 01:35:46;;;;;;;7.03;4.10;;;0.50;99.80;;;;;;6177050;23;20261;-82
2021/03/18 01:38:14;;;;;;;6.53;3.90;;;0.50;99.80;;;;;;6172982;23;20201;-84
2021/03/18 01:40:41;;;;;;;5.30;4.38;;;0.50;99.80;;;;;;6151214;23;20949;-82
2021/03/18 01:43:08;;;;;;;7.07;4.65;;;0.50;99.80;;;;;;6153298;23;20212;-82
2021/03/18 01:45:35;;;;;;;5.97;4.57;;;0.40;99.80;;;;;;6160920;23;20203;-82
2021/03/18 01:48:04;;;;;;;6.22;4.30;;;0.40;99.80;;;;;;6166559;23;20720;-80
2021/03/18 01:50:34;;;;;;;12.38;4.60;;;0.30;99.80;;;;;;6163228;23;20224;-81
2021/03/18 01:53:02;;;;;;;6.80;5.10;;;0.30;99.80;;;;;;6155299;23;20209;-82
2021/03/18 01:55:33;;;;;;;8.25;5.03;;;0.20;99.80;;;;;;6161789;23;20623;-82
2021/03/18 01:58:01;;;;;;;12.50;4.85;;;0.10;99.80;;;;;;6156168;23;20217;-83
2021/03/18 02:00:29;;;;;;;7.65;4.55;;;0.00;99.80;;;;;;6132768;23;20220;-82
2021/03/18 02:02:58;;;;;;;6.53;4.53;;;-0.10;99.80;;;;;;6175497;23;20206;-84
2021/03/18 02:05:26;;;;;;;8.93;5.30;;;-0.10;99.80;;;;;;6177529;23;20603;-82
2021/03/18 02:07:54;;;;;;;11.80;5.35;;;-0.20;99.80;;;;;;6175819;23;20277;-82
2021/03/18 02:10:23;;;;;;;8.98;6.13;;;-0.20;99.80;;;;;;6170088;23;20201;-81
2021/03/18 02:12:51;;;;;;;10.48;7.03;;;-0.20;99.80;;;;;;6163568;23;20201;-83
2021/03/18 02:15:20;;;;;;;8.02;5.47;;;-0.30;99.80;;;;;;6142093;23;20284;-81
2021/03/18 02:17:56;;;;;;;6.88;4.97;;;-0.30;99.80;;;;;;6177140;23;20201;-81
2021/03/18 02:20:58;;;;;;;8.95;5.47;;;-0.40;99.80;;;;;;6164856;23;20198;-82
2021/03/18 02:24:02;;;;;;;10.18;5.47;;;-0.40;99.80;;;;;;6190007;23;20201;-83
2021/03/18 02:26:59;;;;;;;8.10;4.57;;;-0.40;99.80;;;;;;6166850;23;20189;-81
2021/03/18 02:29:56;;;;;;;7.32;4.75;;;-0.40;99.80;;;;;;6188625;23;20251;-81
2021/03/18 02:32:40;;;;;;;6.03;4.57;;;-0.50;99.80;;;;;;6175809;23;20205;-82
2021/03/18 02:35:18;;;;;;;6.82;3.53;;;-0.50;99.80;;;;;;6200049;23;20205;-82
2021/03/18 02:37:54;;;;;;;5.40;4.43;;;-0.50;99.80;;;;;;6207686;23;20275;-82
2021/03/18 02:40:24;;;;;;;8.30;5.60;;;-0.50;99.80;;;;;;6198188;23;20848;-82
2021/03/18 02:42:57;;;;;;;11.15;5.95;;;-0.50;99.80;;;;;;6187443;23;20280;-82
2021/03/18 02:45:31;;;;;;;12.73;7.20;;;-0.50;99.80;;;;;;6169538;23;20206;-82
2021/03/18 02:48:01;;;;;;;9.18;6.30;;;-0.50;99.80;;;;;;6172227;23;20286;-81
2021/03/18 02:50:33;;;;;;;12.20;6.10;;;-0.50;99.80;;;;;;6178718;23;20197;-81
2021/03/18 02:53:01;;;;;;;13.70;7.10;;;-0.50;99.80;;;;;;6151494;23;20760;-83
2021/03/18 02:55:30;;;;;;;6.25;5.53;;;-0.50;99.80;;;;;;6160890;23;20202;-81
2021/03/18 02:58:01;;;;;;;8.30;6.45;;;-0.50;99.80;;;;;;6183791;23;20200;-82
2021/03/18 03:00:28;;;;;;;10.55;5.60;;;-0.50;99.80;;;;;;6188719;23;20200;-81
2021/03/18 03:02:55;;;;;;;10.57;6.43;;;-0.60;99.80;;;;;;6214480;23;20197;-81
2021/03/18 03:05:25;;;;;;;8.85;5.53;;;-0.60;99.80;;;;;;6215692;23;20208;-83
2021/03/18 03:07:53;;;;;;;7.47;5.63;;;-0.60;99.80;;;;;;6214860;23;20219;-81
2021/03/18 03:10:22;;;;;;;10.50;5.95;;;-0.60;99.80;;;;;;6214754;23;20177;-83
2021/03/18 03:12:50;;;;;;;7.78;5.68;;;-0.70;99.80;;;;;;6214738;23;20292;-82
2021/03/18 03:15:18;;;;;;;10.40;6.60;;;-0.70;99.80;;;;;;6175068;23;20236;-80
2021/03/18 03:17:46;;;;;;;8.38;6.25;;;-0.70;99.80;;;;;;6192148;23;20201;-81
2021/03/18 03:20:15;;;;;;;10.00;6.93;;;-0.80;99.80;;;;;;6202900;23;20205;-81
2021/03/18 03:22:43;;;;;;;13.23;7.28;;;-0.80;99.80;;;;;;6148261;23;20297;-81
2021/03/18 03:25:15;;;;;;;11.82;7.47;;;-0.80;99.80;;;;;;6148134;23;20280;-82
2021/03/18 03:27:45;;;;;;;11.73;6.82;;;-0.80;99.80;;;;;;6160814;23;20206;-81
2021/03/18 03:30:13;;;;;;;12.07;6.50;;;-0.80;99.80;;;;;;6170039;23;20228;-83
2021/03/18 03:32:41;;;;;;;14.27;7.28;;;-0.80;99.80;;;;;;6171106;23;20747;-82
2021/03/18 03:35:10;;;;;;;11.95;6.95;;;-0.80;99.80;;;;;;6176673;23;20198;-81
2021/03/18 03:37:38;;;;;;;9.70;6.28;;;-0.80;99.80;;;;;;6179135;23;20204;-80
2021/03/18 03:40:07;;;;;;;8.70;6.25;;;-0.80;99.80;;;;;;6199221;23;20272;-80
2021/03/18 03:42:37;;;;;;;13.70;8.55;;;-0.80;99.80;;;;;;6199216;23;20240;-82
2021/03/18 03:45:06;;;;;;;8.40;6.00;;;-0.80;99.80;;;;;;6188391;23;20862;-81
2021/03/18 03:47:33;;;;;;;13.80;6.53;;;-0.80;99.80;;;;;;6206038;23;20561;-81
2021/03/18 03:50:02;;;;;;;11.23;6.32;;;-0.90;99.80;;;;;;6179090;23;20264;-81
2021/03/18 03:52:35;;;;;;;12.55;6.95;;;-0.80;99.80;;;;;;6155556;23;20212;-81
2021/03/18 03:55:07;;;;;;;10.18;6.15;;;-0.80;99.80;;;;;;6166210;23;20235;-81
2021/03/18 03:57:44;;;;;;;13.27;7.47;;;-0.80;99.80;;;;;;6167560;23;20205;-81
2021/03/18 04:00:12;;;;;;;11.63;6.55;;;-0.70;99.80;;;;;;6177935;23;20197;-81
2021/03/18 04:02:57;;;;;;;10.73;6.90;;;-0.70;99.80;;;;;;6194852;23;20603;-81
2021/03/18 04:05:27;;;;;;;11.13;7.20;;;-0.60;99.80;;;;;;6189555;23;20205;-83
2021/03/18 04:07:58;;;;;;;15.35;6.38;;;-0.50;99.80;;;;;;6185720;23;20231;-81
2021/03/18 04:10:28;;;;;;;18.73;7.03;;;-0.40;99.80;;;;;;6184412;23;20201;-81
2021/03/18 04:12:58;;;;;;;9.70;6.10;;;-0.30;99.80;;;;;;6189998;23;20314;-81
2021/03/18 04:15:27;;;;;;;12.27;6.45;;;-0.20;99.80;;;;;;6196030;23;20299;-82
2021/03/18 04:17:58;;;;;;;14.48;7.20;;;-0.20;99.80;;;;;;6175787;23;20202;-82
2021/03/18 04:20:27;;;;;;;18.95;6.32;;;-0.10;99.80;;;;;;6179440;23;20674;-82
2021/03/18 04:22:57;;;;;;;8.43;6.35;;;-0.10;99.80;;;;;;6169864;23;20289;-83
2021/03/18 04:25:26;;;;;;;9.63;6.18;;;-0.10;99.80;;;;;;6169340;23;20253;-81
2021/03/18 04:27:57;;;;;;;12.82;7.13;;;-0.10;99.80;;;;;;6163363;23;20199;-82
2021/03/18 04:30:26;;;;;;;10.88;6.25;;;0.00;99.80;;;;;;6151849;23;20290;-81
2021/03/18 04:32:53;;;;;;;9.15;5.75;;;0.00;99.80;;;;;;6178005;23;20213;-82
2021/03/18 04:35:22;;;;;;;14.68;6.50;;;0.00;99.80;;;;;;6158148;23;20702;-83
2021/03/18 04:37:49;;;;;;;8.18;5.63;;;0.10;99.80;;;;;;6191215;23;20197;-82
2021/03/18 04:40:22;;;;;;;7.75;6.10;;;0.10;99.80;;;;;;6192751;23;20282;-80
2021/03/18 04:42:50;;;;;;;10.50;6.85;;;0.10;99.80;;;;;;6184986;23;20232;-82
2021/03/18 04:45:21;;;;;;;7.50;5.00;;;0.20;99.80;;;;;;6193000;23;20205;-81
2021/03/18 04:47:50;;;;;;;9.30;5.90;;;0.20;99.80;;;;;;6209786;23;20214;-82
2021/03/18 04:50:19;;;;;;;13.10;5.60;;;0.20;99.80;;;;;;6204775;23;20205;-81
2021/03/18 04:52:48;;;;;;;7.45;5.47;;;0.30;99.80;;;;;;6208128;23;20204;-81
2021/03/18 04:55:18;;;;;;;9.25;5.32;;;0.30;99.80;;;;;;6193456;23;20288;-81
2021/03/18 04:57:48;;;;;;;10.95;7.63;;;0.30;99.80;;;;;;6183751;23;20206;-80
2021/03/18 05:00:17;;;;;;;7.88;6.40;;;0.40;99.80;;;;;;6178329;23;20202;-82
2021/03/18 05:02:48;;;;;;;14.25;7.50;;;0.30;99.80;;;;;;6190723;23;20220;-81
2021/03/18 05:05:19;;;;;;;10.98;6.90;;;0.30;99.80;;;;;;6197704;23;20681;-81
2021/03/18 05:07:49;;;;;;;9.73;6.60;;;0.30;99.80;;;;;;6148534;23;20269;-81
2021/03/18 05:10:18;;;;;;;10.85;7.25;;;0.30;99.80;;;;;;6138638;23;20203;-82
2021/03/18 05:12:46;;;;;;;11.32;7.82;;;0.30;99.80;;;;;;6150838;23;20278;-83
2021/03/18 05:15:14;;;;;;;9.52;7.00;;;0.30;99.80;;;;;;6159343;23;20282;-81
2021/03/18 05:17:43;;;;;;;10.93;7.35;;;0.30;99.80;;;;;;6160387;23;20556;-82
2021/03/18 05:20:13;;;;;;;9.20;5.93;;;0.30;99.80;;;;;;6178496;23;20276;-83
2021/03/18 05:22:42;;;;;;;11.85;7.43;;;0.30;99.80;;;;;;6170914;23;20268;-83
2021/03/18 05:25:10;;;;;;;11.43;7.15;;;0.30;99.80;;;;;;6174871;23;20209;-82
2021/03/18 05:27:38;;;;;;;10.90;7.35;;;0.30;99.80;;;;;;6149426;23;20229;-83
2021/03/18 05:30:07;;;;;;;14.43;7.20;;;0.40;99.80;;;;;;6146993;23;20206;-82
2021/03/18 05:32:34;;;;;;;10.68;7.03;;;0.40;99.80;;;;;;6174434;23;20739;-83
2021/03/18 05:35:02;;;;;;;15.00;8.57;;;0.40;99.80;;;;;;6199179;23;20328;-81
2021/03/18 05:37:30;;;;;;;13.40;8.30;;;0.40;99.80;;;;;;6187768;23;20940;-82
2021/03/18 05:39:57;;;;;;;11.75;7.10;;;0.30;99.80;;;;;;6184426;23;20199;-83
2021/03/18 05:42:24;;;;;;;14.65;7.63;;;0.30;99.80;;;;;;6200220;23;20291;-81
2021/03/18 05:44:51;;;;;;;9.45;7.25;;;0.30;99.80;;;;;;6186045;23;20205;-81
2021/03/18 05:47:19;;;;;;;12.63;6.50;;;0.30;99.80;;;;;;6204520;23;20707;-81
2021/03/18 05:49:46;;;;;;;14.85;7.80;;;0.30;99.80;;;;;;6202814;23;20205;-81
2021/03/18 05:52:13;;;;;;;10.55;7.32;;;0.40;99.80;;;;;;6187340;23;20214;-82
2021/03/18 05:54:47;;;;;;;12.25;7.07;;;0.40;99.80;;;;;;6201073;23;20552;-82
2021/03/18 05:57:16;;;;;;;14.27;7.53;;;0.40;99.80;;;;;;6193642;23;20207;-81
2021/03/18 05:59:46;;;;;;;9.48;6.03;;;0.40;99.80;;;;;;6170693;23;20205;-81
2021/03/18 06:02:13;;;;;;;12.90;10.00;;;0.40;99.80;;;;;;6192389;23;20208;-81
2021/03/18 06:04:41;;;;;;;15.90;11.15;;;0.50;99.80;;;;;;6206783;23;20596;-81
2021/03/18 06:07:09;;;;;;;15.43;8.98;;;0.60;99.80;;;;;;6208899;23;20283;-81
2021/03/18 06:09:36;;;;;;;16.35;8.32;;;0.60;99.80;;;;;;6199141;23;20255;-82
2021/03/18 06:12:05;;;;;;;9.75;6.72;;;0.70;99.80;;;;;;6191841;23;20223;-81
2021/03/18 06:14:33;;;;;;;8.65;6.20;;;0.70;99.80;;;;;;6197749;23;20202;-80
2021/03/18 06:17:00;;;;;;;13.88;7.00;;;0.80;99.80;;;;;;6201621;23;20216;-82
2021/03/18 06:19:27;;;;;;;13.15;7.90;;;0.80;99.80;;;;;;6187268;23;20199;-83
2021/03/18 06:21:57;;;;;;;8.88;6.68;;;0.90;99.80;;;;;;6189577;23;20288;-84
2021/03/18 06:24:26;;;;;;;11.48;7.80;;;1.00;99.80;;;;;;6145428;23;20299;-82
2021/03/18 06:26:54;;;;;;;15.57;11.02;;;1.10;99.80;;;;;;6155779;23;20230;-82
2021/03/18 06:29:30;;;;;;;16.60;11.77;;;1.20;99.80;;;;;;6155154;23;20209;-83
2021/03/18 06:32:02;;;;;;;17.20;10.77;;;1.40;99.80;;;;;;6172150;23;20217;-82
2021/03/18 06:34:40;;;;;;;19.30;9.48;;;1.40;99.80;;;;;;6176932;23;20264;-83
2021/03/18 06:37:28;;;;;;;17.40;9.10;;;1.60;99.80;;;;;;6177413;23;20199;-82
2021/03/18 06:39:56;;;;;;;13.55;7.70;;;1.70;99.80;;;;;;6198752;23;20201;-83
2021/03/18 06:42:23;;;;;;;13.80;8.35;;;1.80;99.80;;;;;;6187196;23;20213;-82
2021/03/18 06:45:04;;;;;;;14.90;8.43;;;1.90;99.80;;;;;;6172203;23;20553;-83
2021/03/18 06:47:43;;;;;;;13.27;7.53;;;2.00;99.80;;;;;;6157000;23;20338;-83
2021/03/18 06:50:12;;;;;;;10.93;7.50;;;2.20;99.80;;;;;;6169272;23;20280;-83
2021/03/18 06:52:40;;;;;;;9.45;6.70;;;2.30;99.80;;;;;;6139071;23;20241;-82
2021/03/18 06:55:10;;;;;;;14.80;7.00;;;2.40;99.80;;;;;;6139821;23;20198;-82
2021/03/18 06:57:37;;;;;;;10.15;6.38;;;2.40;99.80;;;;;;6151298;23;20261;-84
2021/03/18 07:00:08;;;;;;;10.43;5.63;;;2.40;99.80;;;;;;6094165;23;20269;-82
2021/03/18 07:02:40;;;;;;;11.82;6.38;;;2.60;99.80;;;;;;6152887;23;20255;-83
2021/03/18 07:05:19;;;;;;;12.48;6.30;;;2.60;99.80;;;;;;6176714;23;20208;-81
2021/03/18 07:07:47;;;;;;;8.38;6.40;;;2.50;99.80;;;;;;6173420;23;20208;-82
2021/03/18 07:10:15;;;;;;;15.68;7.75;;;2.50;99.80;;;;;;6167321;23;20206;-82
2021/03/18 07:12:42;;;;;;;13.52;7.78;;;2.60;99.80;;;;;;6164932;23;20287;-82
2021/03/18 07:15:19;;;;;;;10.65;6.43;;;2.60;99.80;;;;;;6146634;23;20199;-83
2021/03/18 07:17:57;;;;;;;9.13;6.20;;;2.70;99.80;;;;;;6171616;23;20288;-82
2021/03/18 07:20:25;;;;;;;8.85;6.07;;;2.90;99.80;;;;;;6170329;23;20218;-83
2021/03/18 07:22:53;;;;;;;12.10;5.97;;;2.90;99.80;;;;;;6150628;23;20719;-83
2021/03/18 07:25:24;;;;;;;9.90;5.88;;;3.10;99.80;;;;;;6149904;23;20197;-83
2021/03/18 07:27:53;;;;;;;11.65;6.43;;;3.20;99.80;;;;;;6151258;23;20670;-82
2021/03/18 07:30:27;;;;;;;7.55;5.88;;;3.40;99.80;;;;;;6167396;23;20231;-83
2021/03/18 07:32:56;;;;;;;9.38;5.40;;;3.60;99.80;;;;;;6160636;23;20209;-83
2021/03/18 07:35:25;;;;;;;10.90;6.05;;;3.80;99.80;;;;;;6161258;23;20199;-82
2021/03/18 07:37:53;;;;;;;11.60;7.55;;;3.90;99.60;;;;;;6149174;23;20293;-83
2021/03/18 07:40:20;;;;;;;10.65;6.25;;;3.80;99.80;;;;;;6134841;23;20337;-84
2021/03/18 07:42:49;;;;;;;13.07;6.78;;;3.90;99.80;;;;;;6156029;23;20208;-83
2021/03/18 07:45:19;;;;;;;9.70;5.88;;;3.80;99.80;;;;;;6157605;23;20259;-83
2021/03/18 07:47:48;;;;;;;12.23;6.80;;;3.70;99.80;;;;;;6167697;23;20202;-84
2021/03/18 07:50:19;;;;;;;11.32;6.80;;;3.70;99.80;;;;;;6175479;23;20200;-86
2021/03/18 07:52:48;;;;;;;11.00;6.95;;;3.70;99.80;;;;;;6177174;23;20231;-83
2021/03/18 07:55:17;;;;;;;10.40;6.57;;;3.60;99.80;;;;;;6151859;23;20223;-84
2021/03/18 07:57:45;;;;;;;8.02;6.05;;;3.70;99.80;;;;;;6154944;23;20210;-84
2021/03/18 08:00:15;;;;;;;10.32;7.03;;;3.70;99.80;;;;;;6131768;23;20573;-83
2021/03/18 08:02:43;;;;;;;11.05;6.68;;;3.70;99.80;;;;;;6158411;23;20238;-83
2021/03/18 08:05:12;;;;;;;10.32;6.85;;;3.70;99.80;;;;;;6149580;23;20688;-83
2021/03/18 08:07:46;;;;;;;13.00;7.03;;;3.70;99.80;;;;;;6138311;23;20232;-83
2021/03/18 08:10:16;;;;;;;8.75;6.68;;;3.60;99.80;;;;;;6165257;23;20548;-83
2021/03/18 08:12:48;;;;;;;10.05;7.82;;;3.60;99.80;;;;;;6160166;23;20221;-83
2021/03/18 08:15:30;;;;;;;13.60;7.70;;;3.60;99.80;;;;;;6190258;23;20224;-82
2021/03/18 08:18:19;;;;;;;14.55;8.70;;;3.60;99.80;;;;;;6178537;23;20239;-84
2021/03/18 08:20:59;;;;;;;10.75;7.90;;;3.60;99.80;;;;;;6175337;23;20203;-83
2021/03/18 08:23:53;;;;;;;18.77;9.18;;;3.70;99.80;;;;;;6176892;23;20567;-82
2021/03/18 08:26:42;;;;;;;9.88;6.95;;;3.80;99.80;;;;;;6162015;23;20823;-84
2021/03/18 08:29:12;;;;;;;15.20;8.93;;;3.80;99.80;;;;;;6157848;23;20206;-83
2021/03/18 08:31:48;;;;;;;13.68;7.65;;;3.90;99.80;;;;;;6185920;23;20261;-84
2021/03/18 08:34:16;;;;;;;8.77;6.45;;;3.90;99.80;;;;;;6163109;23;20272;-84
2021/03/18 08:36:57;;;;;;;17.23;7.40;;;3.90;99.80;;;;;;6108929;23;20200;-82
2021/03/18 08:39:53;;;;;;;9.20;5.65;;;4.00;99.80;;;;;;6147450;23;20201;-84
2021/03/18 08:42:44;;;;;;;10.60;5.75;;;4.00;99.80;;;;;;6020125;23;20294;-83
2021/03/18 08:45:44;;;;;;;10.00;6.35;;;4.00;99.80;;;;;;6144593;23;20207;-83
2021/03/18 08:48:20;;;;;;;10.88;6.90;;;4.10;99.80;;;;;;6176057;23;20208;-84
2021/03/18 08:50:54;;;;;;;9.32;6.43;;;4.30;99.80;;;;;;6174340;23;20211;-83
2021/03/18 08:53:33;;;;;;;12.18;7.82;;;4.40;99.80;;;;;;6178620;23;20215;-83
2021/03/18 08:56:01;;;;;;;8.98;6.63;;;4.50;99.80;;;;;;6165749;23;20297;-83
2021/03/18 08:58:28;;;;;;;11.80;6.45;;;4.60;99.80;;;;;;6147861;23;20300;-83
2021/03/18 09:00:56;;;;;;;14.77;6.78;;;4.70;99.50;;;;;;6148648;23;20208;-83
2021/03/18 09:03:23;;;;;;;10.32;6.97;;;4.80;99.80;;;;;;6175243;23;20653;-84
2021/03/18 09:05:53;;;;;;;8.13;6.18;;;4.80;99.00;;;;;;6163033;23;20211;-84
2021/03/18 09:08:26;;;;;;;11.35;6.53;;;5.00;99.10;;;;;;6148473;23;20701;-84
2021/03/18 09:10:54;;;;;;;12.65;6.75;;;5.00;97.70;;;;;;6139335;23;20210;-83
2021/03/18 09:13:24;;;;;;;7.28;6.15;;;5.10;97.80;;;;;;6178185;23;20283;-83
2021/03/18 09:15:58;;;;;;;12.63;6.50;;;5.20;98.70;;;;;;6162038;23;20242;-84
2021/03/18 09:18:28;;;;;;;7.45;6.20;;;5.30;98.70;;;;;;6178302;23;20260;-83
2021/03/18 09:20:59;;;;;;;10.05;6.20;;;5.50;97.80;;;;;;6179528;23;20211;-84
2021/03/18 09:23:27;;;;;;;28.38;6.53;;;5.60;96.80;;;;;;6161906;23;20207;-84
2021/03/18 09:25:57;;;;;;;11.05;6.72;;;5.60;96.90;;;;;;6176274;23;20318;-84
2021/03/18 09:28:25;;;;;;;9.45;6.35;;;5.70;96.40;;;;;;6159618;23;20294;-83
2021/03/18 09:30:54;;;;;;;16.88;6.70;;;5.80;95.90;;;;;;6175868;23;20201;-84
2021/03/18 09:33:26;;;;;;;8.88;6.22;;;5.90;96.00;;;;;;6201006;23;20211;-83
2021/03/18 09:35:58;;;;;;;10.48;6.38;;;6.10;96.50;;;;;;6199762;23;20315;-83
2021/03/18 09:38:32;;;;;;;12.20;7.47;;;6.30;95.50;;;;;;6178247;23;20234;-83
2021/03/18 09:41:01;;;;;;;13.23;6.28;;;6.40;93.60;;;;;;6180078;23;20197;-84
2021/03/18 09:43:30;;;;;;;13.48;6.78;;;6.40;93.30;;;;;;6164818;23;20207;-84
2021/03/18 09:46:00;;;;;;;7.97;6.30;;;6.50;94.30;;;;;;6176818;23;20757;-83
2021/03/18 09:48:31;;;;;;;9.80;6.85;;;6.60;95.20;;;;;;6174725;23;20254;-83
2021/03/18 09:51:10;;;;;;;7.97;6.28;;;6.60;94.70;;;;;;6166184;23;20272;-83
2021/03/18 09:53:38;;;;;;;10.50;7.15;;;6.80;94.40;;;;;;6163858;23;20215;-84
2021/03/18 09:56:07;;;;;;;12.90;7.15;;;7.00;94.60;;;;;;6178574;23;20695;-83
2021/03/18 09:58:35;;;;;;;12.05;7.15;;;6.90;94.10;;;;;;6175099;23;20231;-83
2021/03/18 10:01:13;;;;;;;12.00;7.40;;;7.10;93.70;;;;;;6171620;23;20204;-83
2021/03/18 10:03:55;;;;;;;16.80;7.30;;;7.20;93.00;;;;;;6203466;23;20436;-83
2021/03/18 10:06:28;;;;;;;10.50;6.93;;;7.40;93.50;;;;;;6201665;23;20522;-83
2021/03/18 10:09:24;;;;;;;15.10;7.65;;;7.60;91.70;;;;;;6190500;23;20253;-83
2021/03/18 10:11:58;;;;;;;11.90;7.37;;;7.70;91.10;;;;;;6174960;23;20348;-84
2021/03/18 10:14:30;;;;;;;14.13;7.57;;;7.90;92.30;;;;;;6172710;23;20566;-83
2021/03/18 10:17:06;;;;;;;18.13;7.20;;;8.10;90.00;;;;;;6183073;23;20434;-83
2021/03/18 10:19:37;;;;;;;8.80;6.30;;;8.20;91.00;;;;;;6192458;23;20539;-84
2021/03/18 10:22:06;;;;;;;15.37;9.00;;;8.20;90.30;;;;;;6166099;23;20463;-84
2021/03/18 10:24:34;;;;;;;11.57;6.93;;;8.40;90.70;;;;;;6179434;23;21310;-83
2021/03/18 10:27:10;;;;;;;11.17;7.30;;;8.60;89.40;;;;;;6178723;23;20514;-83
2021/03/18 10:29:38;;;;;;;9.90;6.93;;;8.60;88.50;;;;;;6137664;23;20515;-84
2021/03/18 10:32:12;;;;;;;10.87;7.10;;;8.70;88.10;;;;;;6188743;23;20443;-83
2021/03/18 10:34:52;;;;;;;12.70;7.40;;;8.80;88.90;;;;;;6200591;23;20446;-83
2021/03/18 10:37:28;;;;;;;10.40;7.00;;;9.00;87.30;;;;;;6205659;23;20436;-83
2021/03/18 10:40:21;;;;;;;9.57;7.50;;;9.20;86.50;;;;;;6192566;23;20465;-83
2021/03/18 10:42:50;;;;;;;11.70;7.50;;;9.20;85.20;;;;;;6173294;23;20435;-84
2021/03/18 10:45:21;;;;;;;11.97;6.90;;;9.00;85.50;;;;;;6163729;23;21039;-84
2021/03/18 10:47:48;;;;;;;12.90;7.10;;;9.20;85.00;;;;;;6200913;23;20440;-83
2021/03/18 10:50:20;;;;;;;9.50;6.47;;;9.30;84.40;;;;;;6206598;23;20433;-84
2021/03/18 10:52:56;;;;;;;8.70;6.13;;;9.40;84.80;;;;;;6174690;23;20436;-83
2021/03/18 10:55:26;;;;;;;13.43;7.67;;;9.70;84.10;;;;;;6174654;23;20901;-84
2021/03/18 10:57:55;;;;;;;9.53;7.30;;;10.10;83.90;;;;;;6158751;23;21048;-83
2021/03/18 11:00:23;;;;;;;10.43;7.30;;;10.30;82.30;;;;;;6173361;23;20432;-83
2021/03/18 11:02:58;;;;;;;8.60;6.53;;;10.40;82.10;;;;;;6168520;23;20436;-83
2021/03/18 11:05:34;;;;;;;11.43;7.43;;;10.90;80.20;;;;;;6175635;23;20442;-84
2021/03/18 11:08:02;;;;;;;12.87;8.37;;;10.80;79.30;;;;;;6175925;23;20461;-83
2021/03/18 11:10:32;;;;;;;10.97;6.33;;;11.00;80.40;;;;;;6157037;23;20483;-84
2021/03/18 11:13:03;;;;;;;10.80;6.33;;;11.30;78.00;;;;;;6176100;23;20846;-84
2021/03/18 11:15:46;;;;;;;14.90;7.00;;;11.40;78.20;;;;;;6176448;23;20464;-84
2021/03/18 11:18:15;;;;;;;10.07;6.80;;;11.80;77.00;;;;;;6201830;23;20437;-84
2021/03/18 11:20:45;;;;;;;10.87;6.40;;;12.20;77.40;;;;;;6203343;23;20786;-84
2021/03/18 11:23:14;;;;;;;8.90;6.60;;;12.70;76.50;;;;;;6131643;23;20519;-84
2021/03/18 11:25:41;;;;;;;9.17;6.20;;;13.10;73.60;;;;;;6175563;23;20782;-84
2021/03/18 11:28:14;;;;;;;18.60;6.83;;;13.60;73.70;;;;;;6144088;23;20448;-84
2021/03/18 11:30:43;;;;;;;8.70;7.20;;;14.20;73.40;;;;;;6175530;23;20471;-84
2021/03/18 11:33:13;;;;;;;7.90;6.30;;;14.00;70.90;;;;;;6179764;23;20947;-84
2021/03/18 11:35:43;;;;;;;11.73;7.10;;;13.10;72.80;;;;;;6164527;23;20439;-85
2021/03/18 11:38:10;;;;;;;8.63;6.80;;;12.10;74.60;;;;;;6182239;23;20533;-83
2021/03/18 11:40:39;;;;;;;6.57;5.27;;;10.90;79.50;;;;;;6173582;23;20438;-84
2021/03/18 11:43:06;;;;;;;11.07;6.33;;;9.60;86.60;;;;;;6171423;23;20528;-84
2021/03/18 11:45:34;;;;;;;6.30;5.30;;;8.50;94.70;;;;;;6186970;23;20460;-84
2021/03/18 11:48:02;;;;;;;8.30;5.10;;;7.70;99.70;;;;;;6207561;23;20451;-84
2021/03/18 11:50:30;;;;;;;8.27;5.73;;;7.20;99.80;;;;;;6176295;23;20449;-84
2021/03/18 11:52:58;;;;;;;8.10;5.20;;;6.90;99.80;;;;;;6177252;23;20479;-84
2021/03/18 11:55:26;;;;;;;8.57;4.53;;;6.40;98.10;;;;;;6139310;23;20433;-83
2021/03/18 11:57:57;;;;;;;5.63;4.50;;;6.20;99.20;;;;;;6157477;23;20521;-83
2021/03/18 12:00:26;;;;;;;8.60;5.53;;;6.00;99.80;;;;;;6145640;23;20200;-87
2021/03/18 12:02:54;;;;;;;6.68;4.85;;;5.90;99.80;;;;;;6157977;23;20457;-87
2021/03/18 12:05:41;;;;;;;6.93;4.97;;;6.00;99.80;;;;;;6166083;23;20205;-87
2021/03/18 12:08:10;;;;;;;8.47;5.50;;;6.30;99.80;;;;;;6139635;23;20539;-87
2021/03/18 12:10:46;;;;;;;11.10;5.90;;;6.60;99.80;;;;;;6156015;23;20460;-87
2021/03/18 12:13:13;;;;;;;4.75;4.25;;;6.80;99.80;;;;;;6144288;23;20293;-88
2021/03/18 12:15:40;;;;;;;6.20;4.80;;;7.20;99.80;;;;;;6155500;23;20202;-90
2021/03/18 12:18:07;;;;;;;9.53;6.43;;;7.60;99.80;;;;;;6167475;23;20508;-86
2021/03/18 12:20:35;;;;;;;6.93;4.90;;;7.80;99.80;;;;;;6177887;23;20433;-87
2021/03/18 12:23:02;;;;;;;6.37;4.70;;;8.10;99.40;;;;;;6181642;23;20451;-87
2021/03/18 12:25:30;;;;;;;8.57;5.00;;;8.00;99.20;;;;;;6167712;23;20463;-87
2021/03/18 12:27:57;;;;;;;6.20;4.43;;;8.00;97.40;;;;;;6165788;23;20460;-87
2021/03/18 12:30:25;;;;;;;8.40;5.13;;;8.00;99.40;;;;;;6156956;23;20493;-87
2021/03/18 12:32:53;;;;;;;5.87;4.73;;;8.10;99.00;;;;;;6177576;23;20468;-87
2021/03/18 12:35:22;;;;;;;5.40;4.70;;;8.20;99.80;;;;;;6167202;23;20485;-87
2021/03/18 12:37:51;;;;;;;7.90;5.23;;;8.20;97.70;;;;;;6165701;23;20785;-87
2021/03/18 12:40:19;;;;;;;5.90;4.60;;;8.10;99.40;;;;;;6156111;23;20516;-87
2021/03/18 12:42:48;;;;;;;8.80;4.73;;;8.10;99.80;;;;;;6150118;23;20472;-87
2021/03/18 12:45:17;;;;;;;8.07;5.50;;;8.20;98.80;;;;;;6157065;23;20831;-88
2021/03/18 12:47:44;;;;;;;6.20;4.60;;;8.40;97.40;;;;;;6152685;23;20421;-87
2021/03/18 12:50:16;;;;;;;7.13;4.47;;;8.60;95.90;;;;;;6138625;23;20525;-86
2021/03/18 12:52:43;;;;;;;8.40;5.57;;;8.90;95.10;;;;;;6144864;23;20766;-87
2021/03/18 12:55:15;;;;;;;6.33;4.60;;;9.40;94.10;;;;;;6153056;23;20431;-86
2021/03/18 12:57:51;;;;;;;6.03;4.70;;;9.70;94.10;;;;;;6145437;23;20464;-86
2021/03/18 13:00:20;;;;;;;8.63;6.20;;;10.00;91.50;;;;;;6176781;23;20425;-87
2021/03/18 13:02:48;;;;;;;9.53;6.03;;;10.50;91.40;;;;;;6187789;23;21018;-87
2021/03/18 13:05:16;;;;;;;8.17;6.27;;;10.90;89.70;;;;;;6207387;23;20463;-87
2021/03/18 13:07:43;;;;;;;12.67;6.00;;;11.00;88.70;;;;;;6193163;23;20438;-86